createdAt,value
2023-03-22T00:02:02.748Z,100573.59
2023-03-22T00:04:29.319Z,100569.31
2023-03-22T00:06:55.908Z,100546.50
2023-03-22T00:09:22.376Z,100503.47
2023-03-22T00:11:51.064Z,100575.34
2023-03-22T00:14:18.427Z,100522.91
2023-03-22T00:16:46.378Z,100548.41
2023-03-22T00:19:13.085Z,100563.31
2023-03-22T00:21:39.585Z,100546.56
2023-03-22T00:24:06.636Z,100558.34
2023-03-22T00:26:33.202Z,100547.91
2023-03-22T00:29:00.836Z,100541.25
2023-03-22T00:31:27.391Z,100531.41
2023-03-22T00:33:53.923Z,100541.63
2023-03-22T00:36:20.539Z,100547.75
2023-03-22T00:38:47.142Z,100465.63
2023-03-22T00:41:16.801Z,100546.72
2023-03-22T00:43:44.163Z,100544.56
2023-03-22T00:46:12.118Z,100533.13
2023-03-22T00:48:38.899Z,100543.13
2023-03-22T00:51:06.304Z,100540.22
2023-03-22T00:53:33.088Z,100530.13
2023-03-22T00:56:00.039Z,100534.41
2023-03-22T00:58:26.554Z,100481.91
2023-03-22T01:00:53.094Z,100527.75
2023-03-22T01:03:22.003Z,100525.78
2023-03-22T01:05:49.488Z,100529.03
2023-03-22T01:08:16.941Z,100530.72
2023-03-22T01:10:44.239Z,100529.09
2023-03-22T01:13:11.840Z,100496.41
2023-03-22T01:15:38.501Z,100498.28
2023-03-22T01:18:05.072Z,100524.94
2023-03-22T01:20:32.115Z,100501.34
2023-03-22T01:22:59.460Z,100506.38
2023-03-22T01:25:26.125Z,100491.69
2023-03-22T01:27:52.891Z,100464.59
2023-03-22T01:30:19.402Z,100499.94
2023-03-22T01:32:45.893Z,100496.50
2023-03-22T01:35:12.565Z,100326.75
2023-03-22T01:37:39.151Z,100480.34
2023-03-22T01:40:07.396Z,100487.31
2023-03-22T01:42:34.744Z,100483.44
2023-03-22T01:45:13.527Z,100480.34
2023-03-22T01:47:42.895Z,100435.19
2023-03-22T01:50:51.802Z,100474.56
2023-03-22T01:53:19.821Z,100459.94
2023-03-22T01:55:47.118Z,100439.03
2023-03-22T01:58:18.220Z,100443.50
2023-03-22T02:00:47.736Z,100453.44
2023-03-22T02:03:18.989Z,100431.00
2023-03-22T02:05:47.542Z,100407.16
2023-03-22T02:08:14.979Z,100453.56
2023-03-22T02:10:42.199Z,100440.63
2023-03-22T02:13:28.667Z,100452.97
2023-03-22T02:16:11.177Z,100452.41
2023-03-22T02:18:55.944Z,100443.81
2023-03-22T02:21:25.270Z,100441.06
2023-03-22T02:24:23.606Z,100447.53
2023-03-22T02:27:10.604Z,100433.09
2023-03-22T02:29:45.171Z,100421.75
2023-03-22T02:32:11.629Z,100428.44
2023-03-22T02:34:58.315Z,100378.91
2023-03-22T02:37:49.007Z,100424.03
2023-03-22T02:40:27.934Z,100423.94
2023-03-22T02:43:18.769Z,100405.63
2023-03-22T02:45:51.008Z,100417.09
2023-03-22T02:48:28.492Z,100424.09
2023-03-22T02:51:00.470Z,100423.78
2023-03-22T02:53:42.099Z,100386.03
2023-03-22T02:56:21.908Z,100366.16
2023-03-22T02:58:53.323Z,100425.88
2023-03-22T03:01:34.321Z,100341.38
2023-03-22T03:04:05.733Z,100417.09
2023-03-22T03:06:39.060Z,100419.25
2023-03-22T03:09:07.882Z,100422.22
2023-03-22T03:11:34.478Z,100399.50
2023-03-22T03:14:00.905Z,100381.03
2023-03-22T03:16:30.988Z,100396.41
2023-03-22T03:19:20.436Z,100401.78
2023-03-22T03:22:03.016Z,100400.94
2023-03-22T03:24:37.682Z,100398.81
2023-03-22T03:27:27.408Z,100400.81
2023-03-22T03:30:05.773Z,100410.75
2023-03-22T03:32:43.489Z,100382.91
2023-03-22T03:35:28.181Z,100407.19
2023-03-22T03:38:03.326Z,100389.28
2023-03-22T03:40:36.234Z,100384.06
2023-03-22T03:43:04.922Z,100405.34
2023-03-22T03:45:31.747Z,100403.22
2023-03-22T03:48:02.646Z,100406.63
2023-03-22T03:50:29.813Z,100406.78
2023-03-22T03:52:56.912Z,100390.16
2023-03-22T03:55:24.467Z,100411.88
2023-03-22T03:57:51.218Z,100388.16
2023-03-22T04:00:18.832Z,100373.56
2023-03-22T04:02:45.644Z,100369.44
2023-03-22T04:05:12.966Z,100430.31
2023-03-22T04:07:39.440Z,100401.94
2023-03-22T04:10:06.643Z,100433.31
2023-03-22T04:12:33.823Z,100412.72
2023-03-22T04:15:00.444Z,100458.00
2023-03-22T04:17:29.246Z,100386.06
2023-03-22T04:19:59.024Z,100353.53
2023-03-22T04:22:26.396Z,100438.69
2023-03-22T04:24:52.864Z,100448.19
2023-03-22T04:27:21.450Z,100430.88
2023-03-22T04:29:51.357Z,100392.56
2023-03-22T04:32:19.214Z,100440.41
2023-03-22T04:34:46.563Z,100445.78
2023-03-22T04:37:14.604Z,100428.03
2023-03-22T04:39:41.444Z,100421.53
2023-03-22T04:42:08.392Z,100378.69
2023-03-22T04:44:35.623Z,100398.81
2023-03-22T04:47:02.383Z,100431.31
2023-03-22T04:49:28.982Z,100416.72
2023-03-22T04:51:56.114Z,100413.31
2023-03-22T04:54:23.969Z,100408.75
2023-03-22T04:56:50.926Z,100428.47
2023-03-22T04:59:20.357Z,100414.56
2023-03-22T05:01:47.922Z,100427.06
2023-03-22T05:04:15.642Z,100434.59
2023-03-22T05:06:42.415Z,100439.25
2023-03-22T05:09:09.093Z,100436.28
2023-03-22T05:11:36.348Z,100439.97
2023-03-22T05:14:03.675Z,100428.06
2023-03-22T05:16:30.383Z,100372.72
2023-03-22T05:18:56.939Z,100381.09
2023-03-22T05:21:28.198Z,100429.31
2023-03-22T05:23:56.577Z,100426.06
2023-03-22T05:26:26.248Z,100405.19
2023-03-22T05:28:53.974Z,100431.88
2023-03-22T05:31:24.389Z,100430.72
2023-03-22T05:33:52.152Z,100442.97
2023-03-22T05:36:20.465Z,100376.97
2023-03-22T05:38:47.323Z,100422.25
2023-03-22T05:41:14.101Z,100464.09
2023-03-22T05:43:41.179Z,100448.78
2023-03-22T05:46:09.265Z,100362.81
2023-03-22T05:48:37.136Z,100458.28
2023-03-22T05:51:09.015Z,100407.75
2023-03-22T05:53:35.788Z,100459.88
2023-03-22T05:56:02.297Z,100437.41
2023-03-22T05:58:30.749Z,100444.81
2023-03-22T06:01:01.061Z,100455.44
2023-03-22T06:03:28.495Z,100423.94
2023-03-22T06:05:55.115Z,100405.34
2023-03-22T06:08:26.059Z,100420.66
2023-03-22T06:10:53.973Z,100467.19
2023-03-22T06:13:21.139Z,100459.78
2023-03-22T06:15:48.166Z,100460.22
2023-03-22T06:18:14.796Z,100460.22
2023-03-22T06:20:42.001Z,100452.41
2023-03-22T06:23:08.736Z,100421.66
2023-03-22T06:25:35.331Z,100453.16
2023-03-22T06:28:02.347Z,100443.09
2023-03-22T06:30:29.085Z,100419.38
2023-03-22T06:32:55.725Z,100435.63
2023-03-22T06:35:22.303Z,100419.72
2023-03-22T06:37:48.883Z,100468.59
2023-03-22T06:40:15.460Z,100505.88
2023-03-22T06:42:42.004Z,100493.56
2023-03-22T06:45:08.968Z,100486.88
2023-03-22T06:47:35.606Z,100453.66
2023-03-22T06:50:02.123Z,100394.34
2023-03-22T06:52:28.639Z,100446.56
2023-03-22T06:54:55.173Z,100501.31
2023-03-22T06:57:21.711Z,100401.81
2023-03-22T06:59:48.414Z,100429.47
2023-03-22T07:02:15.033Z,100458.84
2023-03-22T07:04:41.550Z,100488.16
2023-03-22T07:07:08.155Z,100443.59
2023-03-22T07:09:34.606Z,100413.84
2023-03-22T07:12:01.234Z,100485.50
2023-03-22T07:14:31.316Z,100484.19
2023-03-22T07:16:57.900Z,100399.13
2023-03-22T07:19:24.502Z,100446.59
2023-03-22T07:21:51.143Z,100464.69
2023-03-22T07:24:17.711Z,100473.31
2023-03-22T07:26:44.260Z,100467.03
2023-03-22T07:29:10.870Z,100438.50
2023-03-22T07:31:38.039Z,100399.72
2023-03-22T07:34:04.653Z,100457.03
2023-03-22T07:36:31.796Z,100448.78
2023-03-22T07:38:58.350Z,100425.69
2023-03-22T07:41:27.040Z,100426.84
2023-03-22T07:44:02.242Z,100442.78
2023-03-22T07:46:34.475Z,100454.03
2023-03-22T07:49:01.022Z,100455.13
2023-03-22T07:51:27.605Z,100432.13
2023-03-22T07:53:54.335Z,100448.16
2023-03-22T07:56:20.930Z,100433.38
2023-03-22T07:58:47.472Z,100391.84
2023-03-22T08:01:14.187Z,100415.03
2023-03-22T08:03:40.742Z,100416.31
2023-03-22T08:06:08.168Z,100416.19
2023-03-22T08:08:36.958Z,100417.00
2023-03-22T08:11:07.709Z,100396.81
2023-03-22T08:13:34.507Z,100350.59
2023-03-22T08:16:01.784Z,100381.00
2023-03-22T08:18:28.433Z,100318.25
2023-03-22T08:20:56.592Z,100361.34
2023-03-22T08:23:38.374Z,100373.94
2023-03-22T08:26:07.407Z,100359.03
2023-03-22T08:28:33.977Z,100371.94
2023-03-22T08:31:00.444Z,100301.41
2023-03-22T08:33:27.088Z,100280.28
2023-03-22T08:36:14.045Z,100364.16
2023-03-22T08:38:42.531Z,100361.50
2023-03-22T08:41:09.406Z,100361.09
2023-03-22T08:43:35.909Z,100317.41
2023-03-22T08:46:02.900Z,100318.50
2023-03-22T08:48:30.817Z,100366.22
2023-03-22T08:50:58.188Z,100367.66
2023-03-22T08:53:24.828Z,100378.41
2023-03-22T08:55:51.320Z,100371.31
2023-03-22T08:58:20.066Z,100332.75
2023-03-22T09:00:49.681Z,100385.13
2023-03-22T09:03:17.092Z,100383.03
2023-03-22T09:05:43.729Z,100375.06
2023-03-22T09:08:18.181Z,100362.94
2023-03-22T09:10:48.057Z,100361.53
2023-03-22T09:13:16.815Z,100390.94
2023-03-22T09:15:45.060Z,100358.94
2023-03-22T09:18:12.058Z,100294.16
2023-03-22T09:20:39.455Z,100322.63
2023-03-22T09:23:06.783Z,100379.13
2023-03-22T09:25:33.556Z,100406.50
2023-03-22T09:28:00.045Z,100391.91
2023-03-22T09:30:27.353Z,100207.75
2023-03-22T09:32:54.133Z,100385.56
2023-03-22T09:35:20.919Z,100404.63
2023-03-22T09:37:49.654Z,100393.88
2023-03-22T09:40:17.808Z,100352.19
2023-03-22T09:42:47.577Z,100343.88
2023-03-22T09:45:18.696Z,100352.16
2023-03-22T09:47:49.163Z,100374.56
2023-03-22T09:50:21.258Z,100381.56
2023-03-22T09:52:48.664Z,100396.81
2023-03-22T09:55:43.438Z,100380.16
2023-03-22T09:58:28.662Z,100356.41
2023-03-22T10:01:21.862Z,100386.56
2023-03-22T10:04:17.111Z,100390.38
2023-03-22T10:06:50.091Z,100353.66
2023-03-22T10:09:28.460Z,100379.84
2023-03-22T10:12:06.108Z,100379.97
2023-03-22T10:14:39.334Z,100382.00
2023-03-22T10:17:13.994Z,100352.19
2023-03-22T10:19:49.753Z,100380.97
2023-03-22T10:22:22.792Z,100384.41
2023-03-22T10:24:52.155Z,100381.56
2023-03-22T10:27:22.079Z,100386.41
2023-03-22T10:30:08.425Z,100391.47
2023-03-22T10:32:58.320Z,100397.75
2023-03-22T10:35:29.013Z,100401.03
2023-03-22T10:37:59.761Z,100365.56
2023-03-22T10:40:34.040Z,100389.81
2023-03-22T10:43:05.853Z,100360.16
2023-03-22T10:45:35.332Z,100380.53
2023-03-22T10:48:28.452Z,100398.50
2023-03-22T10:50:56.100Z,100401.03
2023-03-22T10:53:36.163Z,100396.81
2023-03-22T10:56:03.428Z,100387.59
2023-03-22T10:58:32.376Z,100404.41
2023-03-22T11:01:05.081Z,100395.09
2023-03-22T11:03:50.926Z,100407.81
2023-03-22T11:06:25.087Z,100402.38
2023-03-22T11:08:59.642Z,100388.47
2023-03-22T11:11:27.735Z,100424.13
2023-03-22T11:14:24.974Z,100399.00
2023-03-22T11:17:06.630Z,100402.25
2023-03-22T11:19:41.893Z,100401.88
2023-03-22T11:22:21.917Z,100379.19
2023-03-22T11:24:48.469Z,100378.16
2023-03-22T11:27:22.056Z,100414.09
2023-03-22T11:29:59.696Z,100405.06
2023-03-22T11:32:36.257Z,100410.53
2023-03-22T11:35:14.472Z,100401.06
2023-03-22T11:37:46.983Z,100402.06
2023-03-22T11:40:23.885Z,100396.78
2023-03-22T11:42:56.290Z,100365.22
2023-03-22T11:45:29.536Z,100417.09
2023-03-22T11:48:03.239Z,100403.19
2023-03-22T11:50:32.608Z,100415.09
2023-03-22T11:53:02.845Z,100398.63
2023-03-22T11:55:34.365Z,100362.03
2023-03-22T11:58:04.186Z,100420.31
2023-03-22T12:00:33.384Z,100402.72
2023-03-22T12:03:07.042Z,100331.78
2023-03-22T12:05:37.186Z,100346.25
2023-03-22T12:08:09.631Z,100388.78
2023-03-22T12:10:42.224Z,100399.31
2023-03-22T12:13:25.139Z,100404.91
2023-03-22T12:15:58.143Z,100383.00
2023-03-22T12:18:41.502Z,100385.59
2023-03-22T12:21:10.241Z,100368.53
2023-03-22T12:23:37.038Z,100371.81
2023-03-22T12:26:16.086Z,100404.19
2023-03-22T12:29:05.142Z,100398.97
2023-03-22T12:31:39.012Z,100363.69
2023-03-22T12:34:18.509Z,100374.56
2023-03-22T12:36:51.006Z,100381.69
2023-03-22T12:39:32.055Z,100339.44
2023-03-22T12:42:04.362Z,100371.28
2023-03-22T12:44:40.408Z,100377.06
2023-03-22T12:47:22.647Z,100297.00
2023-03-22T12:49:56.626Z,100332.41
2023-03-22T12:52:47.869Z,100393.13
2023-03-22T12:55:41.399Z,100386.75
2023-03-22T12:58:10.083Z,100384.38
2023-03-22T13:00:36.526Z,100387.09
2023-03-22T13:03:15.330Z,100388.56
2023-03-22T13:05:42.690Z,100385.16
2023-03-22T13:08:10.372Z,100375.94
2023-03-22T13:10:38.688Z,100399.53
2023-03-22T13:13:12.240Z,100396.28
2023-03-22T13:15:42.594Z,100379.22
2023-03-22T13:18:37.759Z,100410.34
2023-03-22T13:21:27.037Z,100415.44
2023-03-22T13:24:05.619Z,100413.78
2023-03-22T13:26:35.189Z,100433.53
2023-03-22T13:29:10.169Z,100423.41
2023-03-22T13:31:42.494Z,100425.16
2023-03-22T13:34:21.860Z,100413.38
2023-03-22T13:36:56.828Z,100407.84
2023-03-22T13:39:25.519Z,100423.13
2023-03-22T13:42:07.800Z,100388.00
2023-03-22T13:44:40.286Z,100406.00
2023-03-22T13:47:46.497Z,100374.84
2023-03-22T13:50:28.085Z,100316.34
2023-03-22T13:53:15.586Z,100395.16
2023-03-22T13:56:07.012Z,100403.88
2023-03-22T13:58:45.525Z,100400.81
2023-03-22T14:01:38.081Z,100370.38
2023-03-22T14:04:13.346Z,100399.53
2023-03-22T14:06:52.858Z,100398.31
2023-03-22T14:09:31.649Z,100413.00
2023-03-22T14:12:18.043Z,100398.41
2023-03-22T14:14:48.923Z,100349.44
2023-03-22T14:17:34.909Z,100417.03
2023-03-22T14:20:04.949Z,100401.66
2023-03-22T14:52:29.752Z,100398.53
2023-03-22T14:54:59.675Z,100408.53
2023-03-22T14:57:36.822Z,100414.41
2023-03-22T15:00:16.182Z,100394.22
2023-03-22T15:02:45.937Z,100408.47
2023-03-22T15:05:17.586Z,100343.53
2023-03-22T15:07:50.642Z,100393.03
2023-03-22T15:10:21.523Z,100402.22
2023-03-22T15:12:50.813Z,100416.00
2023-03-22T15:15:20.392Z,100420.81
2023-03-22T15:17:48.441Z,100362.31
2023-03-22T15:20:25.379Z,100415.75
2023-03-22T15:22:54.246Z,100395.53
2023-03-22T15:25:28.707Z,100387.41
2023-03-22T15:27:56.484Z,100321.03
2023-03-22T15:30:23.386Z,100409.53
2023-03-22T15:32:50.022Z,100358.41
2023-03-22T15:35:19.135Z,100395.47
2023-03-22T15:37:54.724Z,100407.66
2023-03-22T15:40:33.565Z,100402.66
2023-03-22T15:43:14.243Z,100412.75
2023-03-22T15:45:41.038Z,100348.94
2023-03-22T15:48:19.451Z,100409.22
2023-03-22T15:50:50.729Z,100358.41
2023-03-22T15:53:31.071Z,100396.78
2023-03-22T15:55:58.508Z,100405.66
2023-03-22T15:58:29.789Z,100355.69
2023-03-22T16:01:09.797Z,100382.53
2023-03-22T16:03:42.609Z,100411.50
2023-03-22T16:06:11.835Z,100386.13
2023-03-22T16:08:38.675Z,100423.19
2023-03-22T16:11:06.512Z,100425.75
2023-03-22T16:13:38.268Z,100372.97
2023-03-22T16:16:05.343Z,100393.59
2023-03-22T16:18:32.228Z,100427.22
2023-03-22T16:20:58.847Z,100430.69
2023-03-22T16:23:26.543Z,100420.75
2023-03-22T16:25:53.311Z,100397.97
2023-03-22T16:28:20.206Z,100432.00
2023-03-22T16:30:47.520Z,100434.56
2023-03-22T16:33:15.535Z,100400.03
2023-03-22T16:35:42.529Z,100418.16
2023-03-22T16:38:16.649Z,100424.19
2023-03-22T16:40:52.379Z,100417.03
2023-03-22T16:43:19.677Z,100342.44
2023-03-22T16:45:48.797Z,100426.28
2023-03-22T16:48:15.843Z,100399.81
2023-03-22T16:50:44.929Z,100343.94
2023-03-22T16:53:17.336Z,100414.19
2023-03-22T16:55:46.154Z,100425.69
2023-03-22T16:58:13.707Z,100419.69
2023-03-22T17:00:40.821Z,100419.19
2023-03-22T17:03:12.618Z,100433.97
2023-03-22T17:05:39.338Z,100416.91
2023-03-22T17:08:16.340Z,100441.38
2023-03-22T17:10:43.205Z,100418.47
2023-03-22T17:13:16.204Z,100434.25
2023-03-22T17:15:48.700Z,100434.63
2023-03-22T17:18:16.498Z,100445.00
2023-03-22T17:20:46.814Z,100444.13
2023-03-22T17:23:14.635Z,100461.00
2023-03-22T17:25:44.341Z,100439.09
2023-03-22T17:28:12.779Z,100440.56
2023-03-22T17:30:39.758Z,100415.50
2023-03-22T17:35:34.362Z,100394.06
2023-03-22T17:38:02.949Z,100409.53
2023-03-22T17:40:39.744Z,100390.41
2023-03-22T17:43:15.104Z,100383.66
2023-03-22T17:46:11.211Z,100400.38
2023-03-22T17:48:29.059Z,100439.28
2023-03-22T17:50:56.371Z,100443.69
2023-03-22T17:54:12.990Z,100422.88
2023-03-22T17:56:43.199Z,100386.16
2023-03-22T17:58:57.298Z,100376.41
2023-03-22T18:01:23.945Z,100437.06
2023-03-22T18:03:51.249Z,100428.66
2023-03-22T18:06:18.221Z,100340.59
2023-03-22T18:08:44.953Z,100397.69
2023-03-22T18:11:13.998Z,100414.03
2023-03-22T18:13:44.404Z,100403.13
2023-03-22T18:16:12.302Z,100406.69
2023-03-22T18:18:39.275Z,100412.16
2023-03-22T18:21:08.974Z,100408.53
2023-03-22T18:23:36.210Z,100407.72
2023-03-22T18:26:08.171Z,100350.56
2023-03-22T18:28:42.560Z,100403.44
2023-03-22T18:31:11.229Z,100402.34
2023-03-22T18:33:39.800Z,100396.72
2023-03-22T18:36:07.776Z,100411.84
2023-03-22T18:39:09.778Z,100416.44
2023-03-22T18:43:52.512Z,100410.31
2023-03-22T18:46:19.987Z,100357.75
2023-03-22T18:48:46.640Z,100358.97
2023-03-22T18:51:13.761Z,100392.84
2023-03-22T18:53:40.580Z,100392.31
2023-03-22T18:56:09.810Z,100378.03
2023-03-22T18:58:36.637Z,100378.22
2023-03-22T19:01:03.534Z,100371.69
2023-03-22T19:03:31.335Z,100384.91
2023-03-22T19:06:12.000Z,100348.38
2023-03-22T19:08:40.057Z,100418.03
2023-03-22T19:11:06.879Z,100406.38
2023-03-22T19:13:33.814Z,100399.88
2023-03-22T19:16:05.400Z,100360.25
2023-03-22T19:18:33.172Z,100361.28
2023-03-22T19:21:10.215Z,100335.16
2023-03-22T19:23:39.940Z,100405.22
2023-03-22T19:26:09.280Z,100339.44
2023-03-22T19:28:39.032Z,100404.25
2023-03-22T19:31:06.770Z,100403.81
2023-03-22T19:36:06.794Z,100401.97
2023-03-22T19:38:33.401Z,100320.34
2023-03-22T19:41:38.759Z,100397.34
2023-03-22T19:43:48.509Z,100388.41
2023-03-22T19:46:15.140Z,100398.09
2023-03-22T19:48:42.095Z,100381.81
2023-03-22T19:51:08.915Z,100381.28
2023-03-22T19:54:17.146Z,100366.91
2023-03-22T19:56:24.580Z,100356.16
2023-03-22T19:58:52.429Z,100376.28
2023-03-22T20:01:19.069Z,100390.31
2023-03-22T20:03:46.365Z,100241.06
2023-03-22T20:06:13.013Z,100361.06
2023-03-22T20:08:40.100Z,100380.03
2023-03-22T20:11:07.081Z,100344.06
2023-03-22T20:13:34.408Z,100372.06
2023-03-22T20:16:01.429Z,100363.97
2023-03-22T20:18:28.541Z,100326.81
2023-03-22T20:20:55.234Z,100368.91
2023-03-22T20:23:25.669Z,100352.53
2023-03-22T20:26:00.842Z,100371.63
2023-03-22T20:28:29.032Z,100375.47
2023-03-22T20:30:56.277Z,100370.22
2023-03-22T20:33:23.943Z,100333.09
2023-03-22T20:35:55.492Z,100384.25
2023-03-22T20:38:23.250Z,100374.78
2023-03-22T20:40:49.859Z,100331.78
2023-03-22T20:43:16.665Z,100302.34
2023-03-22T20:45:43.512Z,100372.97
2023-03-22T20:48:10.183Z,100324.69
2023-03-22T20:50:36.759Z,100360.88
2023-03-22T20:53:04.392Z,100361.59
2023-03-22T20:55:31.319Z,100348.50
2023-03-22T20:57:58.217Z,100276.97
2023-03-22T21:00:25.143Z,100341.94
2023-03-22T21:02:54.322Z,100331.50
2023-03-22T21:05:22.118Z,100327.84
2023-03-22T21:07:50.628Z,100300.56
2023-03-22T21:10:19.076Z,100272.69
2023-03-22T21:12:46.408Z,100312.88
2023-03-22T21:15:14.368Z,100293.09
2023-03-22T21:17:42.243Z,100332.16
2023-03-22T21:20:12.071Z,100329.44
2023-03-22T21:22:44.080Z,100266.09
2023-03-22T21:25:10.931Z,100313.06
2023-03-22T21:27:38.738Z,100308.81
2023-03-22T21:30:07.718Z,100307.47
2023-03-22T21:32:34.315Z,100309.09
2023-03-22T21:35:00.982Z,100286.94
2023-03-22T21:37:27.814Z,100240.69
2023-03-22T21:39:54.857Z,100301.44
2023-03-22T21:42:24.229Z,100291.94
2023-03-22T21:44:50.930Z,100309.75
2023-03-22T21:47:21.669Z,100310.47
2023-03-22T21:49:55.726Z,100277.75
2023-03-22T21:52:24.745Z,100304.31
2023-03-22T21:54:56.236Z,100310.38
2023-03-22T21:57:23.739Z,100306.38
2023-03-22T21:59:51.184Z,100250.88
2023-03-22T22:02:19.720Z,100298.44
2023-03-22T22:04:47.226Z,100263.91
2023-03-22T22:07:15.379Z,100292.31
2023-03-22T22:09:42.553Z,100284.75
2023-03-22T22:12:09.605Z,100153.59
2023-03-22T22:14:36.911Z,100283.78
2023-03-22T22:17:05.003Z,100274.13
2023-03-22T22:19:32.006Z,100205.03
2023-03-22T22:21:58.689Z,100273.63
2023-03-22T22:24:26.552Z,100280.75
2023-03-22T22:26:53.305Z,100214.69
2023-03-22T22:29:20.179Z,100228.97
2023-03-22T22:31:46.887Z,100232.97
2023-03-22T22:34:13.612Z,100230.63
2023-03-22T22:36:40.228Z,100195.56
2023-03-22T22:39:08.210Z,100229.34
2023-03-22T22:41:34.809Z,100262.22
2023-03-22T22:44:01.482Z,100266.78
2023-03-22T22:46:29.209Z,100242.53
2023-03-22T22:48:55.900Z,100221.78
2023-03-22T22:51:24.584Z,100262.91
2023-03-22T22:53:52.720Z,100267.25
2023-03-22T22:56:20.385Z,100256.91
2023-03-22T22:58:47.947Z,100211.91
2023-03-22T23:01:16.999Z,100248.41
2023-03-22T23:03:44.047Z,100249.22
2023-03-22T23:06:16.692Z,100246.53
2023-03-22T23:08:44.709Z,100240.53
2023-03-22T23:11:14.309Z,100193.69
2023-03-22T23:13:46.898Z,100236.47
2023-03-22T23:16:17.922Z,100226.09
2023-03-22T23:18:48.100Z,100228.06
2023-03-22T23:21:18.413Z,100209.91
2023-03-22T23:23:46.105Z,100222.41
2023-03-22T23:26:22.424Z,100215.91
2023-03-22T23:28:54.000Z,100171.75
2023-03-22T23:31:21.548Z,100211.81
2023-03-22T23:33:48.718Z,100205.03
2023-03-22T23:36:22.075Z,100201.31
2023-03-22T23:38:54.144Z,100199.13
2023-03-22T23:41:24.992Z,100210.13
2023-03-22T23:43:53.340Z,100203.47
2023-03-22T23:46:21.201Z,100163.50
2023-03-22T23:48:47.972Z,100199.78
2023-03-22T23:51:16.807Z,100205.50
2023-03-22T23:53:43.916Z,100215.56
2023-03-22T23:56:16.512Z,100044.88
2023-03-22T23:58:45.039Z,100201.44
